Alpha, Illinois
Current Conditions -  °F | °C
As of 6:52 PM on Saturday 22 Nov 2014 (Local Time) from KMLI Reporting Station
Overcast Overcast  
Wind Chill: 13°   Ceiling: 2100
Heat Index: 13°   Visibility: 10mi
Dew Point:   Wind: 13mph
Humidity: 80%   Direction: 180°S
Pressure: 29.8"   Gusts: NA
Location:  41.19°N, 90.38°W
Report Text: KMLI 230052Z 18011KT 10SM OVC021 13/09 A2980 RMK AO2 SLP093 T01280094 $
Loading
Personal Weather Stations






























Interactive Weather Map New forecast layout! Learn more

10-Day Weather Forecast

Advertisements
Track Severe Weather on mobile